createdAt,value
2018-09-29T00:00:36.824Z,1021.94
2018-09-29T00:01:36.803Z,1021.90
2018-09-29T00:02:36.781Z,1021.96
2018-09-29T00:03:36.787Z,1021.94
2018-09-29T00:04:36.761Z,1021.98
2018-09-29T00:05:36.765Z,1021.94
2018-09-29T00:06:36.742Z,1021.98
2018-09-29T00:07:36.735Z,1022.02
2018-09-29T00:08:36.728Z,1021.98
2018-09-29T00:09:36.705Z,1021.94
2018-09-29T00:10:36.694Z,1021.99
2018-09-29T00:11:36.685Z,1021.97
2018-09-29T00:12:36.672Z,1022.04
2018-09-29T00:13:36.682Z,1022.00
2018-09-29T00:14:36.648Z,1022.00
2018-09-29T00:15:36.638Z,1022.04
2018-09-29T00:16:36.694Z,1022.07
2018-09-29T00:17:36.621Z,1022.05
2018-09-29T00:18:36.628Z,1022.04
2018-09-29T00:19:36.593Z,1022.09
2018-09-29T00:20:36.582Z,1022.04
2018-09-29T00:21:36.571Z,1022.06
2018-09-29T00:22:36.562Z,1022.09
2018-09-29T00:23:36.560Z,1022.10
2018-09-29T00:24:36.551Z,1022.10
2018-09-29T00:25:36.528Z,1022.08
2018-09-29T00:26:36.517Z,1022.05
2018-09-29T00:27:36.506Z,1022.08
2018-09-29T00:28:36.528Z,1022.08
2018-09-29T00:29:36.495Z,1022.08
2018-09-29T00:30:36.481Z,1022.12
2018-09-29T00:31:36.464Z,1022.09
2018-09-29T00:32:36.451Z,1022.09
2018-09-29T00:33:36.439Z,1022.08
2018-09-29T00:34:36.440Z,1022.09
2018-09-29T00:35:36.417Z,1022.12
2018-09-29T00:36:36.406Z,1022.11
2018-09-29T00:37:36.396Z,1022.09
2018-09-29T00:38:36.385Z,1022.12
2018-09-29T00:39:36.385Z,1022.10
2018-09-29T00:40:36.362Z,1022.09
2018-09-29T00:41:36.365Z,1022.08
2018-09-29T00:42:36.341Z,1022.05
2018-09-29T00:43:36.331Z,1022.07
2018-09-29T00:44:36.329Z,1022.05
2018-09-29T00:45:36.306Z,1022.01
2018-09-29T00:46:36.300Z,1022.03
2018-09-29T00:47:36.284Z,1022.01
2018-09-29T00:48:36.272Z,1021.98
2018-09-29T00:49:36.274Z,1022.01
2018-09-29T00:50:36.252Z,1022.01
2018-09-29T00:51:36.242Z,1022.07
2018-09-29T00:52:36.234Z,1022.05
2018-09-29T00:53:36.219Z,1022.03
2018-09-29T00:54:36.228Z,1022.02
2018-09-29T00:55:36.197Z,1022.04
2018-09-29T00:56:36.186Z,1022.03
2018-09-29T00:57:36.175Z,1022.04
2018-09-29T00:58:36.164Z,1022.10
2018-09-29T00:59:36.166Z,1022.10
2018-09-29T01:00:36.143Z,1022.11
2018-09-29T01:01:36.130Z,1022.15
2018-09-29T01:02:36.122Z,1022.14
2018-09-29T01:03:36.108Z,1022.14
2018-09-29T01:04:36.123Z,1022.17
2018-09-29T01:05:36.087Z,1022.12
2018-09-29T01:06:36.076Z,1022.18
2018-09-29T01:07:36.064Z,1022.11
2018-09-29T01:08:36.060Z,1022.07
2018-09-29T01:09:36.075Z,1022.08
2018-09-29T01:10:36.035Z,1022.12
2018-09-29T01:11:36.020Z,1022.11
2018-09-29T01:12:36.009Z,1022.11
2018-09-29T01:13:35.999Z,1022.09
2018-09-29T01:14:35.999Z,1022.04
2018-09-29T01:15:35.976Z,1022.07
2018-09-29T01:16:35.965Z,1022.08
2018-09-29T01:17:35.969Z,1022.03
2018-09-29T01:18:35.943Z,1022.07
2018-09-29T01:19:35.966Z,1022.04
2018-09-29T01:20:35.921Z,1022.03
2018-09-29T01:21:35.909Z,1022.03
2018-09-29T01:22:35.901Z,1022.02
2018-09-29T01:23:35.888Z,1021.98
2018-09-29T01:24:35.889Z,1021.98
2018-09-29T01:25:35.870Z,1021.97
2018-09-29T01:26:35.854Z,1021.96
2018-09-29T01:27:35.844Z,1021.93
2018-09-29T01:28:35.839Z,1021.98
2018-09-29T01:29:35.841Z,1021.98
2018-09-29T01:30:35.819Z,1022.02
2018-09-29T01:31:35.800Z,1021.99
2018-09-29T01:32:35.811Z,1022.01
2018-09-29T01:33:35.779Z,1022.02
2018-09-29T01:34:35.779Z,1022.10
2018-09-29T01:35:35.757Z,1022.06
2018-09-29T01:36:35.744Z,1022.05
2018-09-29T01:37:35.734Z,1022.03
2018-09-29T01:38:35.727Z,1022.06
2018-09-29T01:39:35.724Z,1022.09
2018-09-29T01:40:35.701Z,1022.06
2018-09-29T01:41:35.692Z,1022.09
2018-09-29T01:42:35.701Z,1022.03
2018-09-29T01:43:35.668Z,1022.08
2018-09-29T01:44:35.668Z,1022.11
2018-09-29T01:45:35.648Z,1022.06
2018-09-29T01:46:35.635Z,1022.04
2018-09-29T01:47:35.626Z,1022.03
2018-09-29T01:48:35.613Z,1022.03
2018-09-29T01:49:35.613Z,1021.99
2018-09-29T01:50:35.590Z,1022.01
2018-09-29T01:51:35.583Z,1022.02
2018-09-29T01:52:35.570Z,1022.02
2018-09-29T01:53:35.566Z,1021.97
2018-09-29T01:54:35.560Z,1022.01
2018-09-29T01:55:35.552Z,1021.97
2018-09-29T01:56:35.525Z,1021.98
2018-09-29T01:57:35.514Z,1022.04
2018-09-29T01:58:35.503Z,1022.02
2018-09-29T01:59:35.505Z,1021.99
2018-09-29T02:00:35.481Z,1022.00
2018-09-29T02:01:35.473Z,1021.99
2018-09-29T02:02:35.461Z,1022.00
2018-09-29T02:03:35.477Z,1021.99
2018-09-29T02:04:35.470Z,1022.02
2018-09-29T02:05:35.451Z,1022.02
2018-09-29T02:06:35.423Z,1022.06
2018-09-29T02:07:35.403Z,1022.08
2018-09-29T02:08:35.404Z,1022.08
2018-09-29T02:09:35.382Z,1022.11
2018-09-29T02:10:35.384Z,1022.11
2018-09-29T02:11:35.358Z,1022.13
2018-09-29T02:12:35.348Z,1022.15
2018-09-29T02:13:35.337Z,1022.14
2018-09-29T02:14:35.328Z,1022.16
2018-09-29T02:15:35.326Z,1022.16
2018-09-29T02:16:35.324Z,1022.17
2018-09-29T02:17:35.296Z,1022.15
2018-09-29T02:18:35.289Z,1022.16
2018-09-29T02:19:35.271Z,1022.19
2018-09-29T02:20:35.272Z,1022.20
2018-09-29T02:21:35.252Z,1022.25
2018-09-29T02:22:35.238Z,1022.22
2018-09-29T02:23:35.227Z,1022.24
2018-09-29T02:24:35.215Z,1022.22
2018-09-29T02:25:35.216Z,1022.19
2018-09-29T02:26:35.194Z,1022.21
2018-09-29T02:27:35.182Z,1022.24
2018-09-29T02:28:35.262Z,1022.21
2018-09-29T02:29:35.161Z,1022.17
2018-09-29T02:30:35.163Z,1022.19
2018-09-29T02:31:35.142Z,1022.16
2018-09-29T02:32:35.127Z,1022.11
2018-09-29T02:33:35.116Z,1022.10
2018-09-29T02:34:35.105Z,1022.05
2018-09-29T02:35:35.111Z,1022.08
2018-09-29T02:36:35.083Z,1022.02
2018-09-29T02:37:35.074Z,1022.05
2018-09-29T02:38:35.061Z,1022.05
2018-09-29T02:39:35.060Z,1022.05
2018-09-29T02:40:35.052Z,1022.07
2018-09-29T02:41:35.033Z,1022.04
2018-09-29T02:42:35.026Z,1022.01
2018-09-29T02:43:35.008Z,1022.03
2018-09-29T02:44:34.995Z,1022.00
2018-09-29T02:45:34.996Z,1022.02
2018-09-29T02:46:34.973Z,1021.99
2018-09-29T02:47:34.962Z,1021.99
2018-09-29T02:48:34.951Z,1021.99
2018-09-29T02:49:34.940Z,1022.03
2018-09-29T02:50:34.943Z,1022.02
2018-09-29T02:51:34.944Z,1021.99
2018-09-29T02:52:34.930Z,1022.02
2018-09-29T02:53:34.897Z,1022.03
2018-09-29T02:54:34.885Z,1022.02
2018-09-29T02:55:34.889Z,1021.99
2018-09-29T02:56:34.866Z,1021.95
2018-09-29T02:57:34.852Z,1021.98
2018-09-29T02:58:34.844Z,1021.94
2018-09-29T02:59:34.832Z,1021.96
2018-09-29T03:00:34.831Z,1021.93
2018-09-29T03:01:34.808Z,1021.88
2018-09-29T03:02:34.797Z,1021.90
2018-09-29T03:03:34.787Z,1021.91
2018-09-29T03:04:34.777Z,1021.90
2018-09-29T03:05:34.792Z,1021.94
2018-09-29T03:06:34.755Z,1021.92
2018-09-29T03:07:34.742Z,1021.93
2018-09-29T03:08:34.730Z,1021.96
2018-09-29T03:09:34.723Z,1021.93
2018-09-29T03:10:34.720Z,1021.88
2018-09-29T03:11:34.698Z,1021.88
2018-09-29T03:12:34.688Z,1021.91
2018-09-29T03:13:34.681Z,1021.88
2018-09-29T03:14:34.676Z,1021.87
2018-09-29T03:15:34.668Z,1021.90
2018-09-29T03:16:34.644Z,1021.85
2018-09-29T03:17:34.631Z,1021.88
2018-09-29T03:18:34.629Z,1021.87
2018-09-29T03:19:34.609Z,1021.83
2018-09-29T03:20:34.610Z,1021.85
2018-09-29T03:21:34.588Z,1021.85
2018-09-29T03:22:34.590Z,1021.83
2018-09-29T03:23:34.564Z,1021.89
2018-09-29T03:24:34.554Z,1021.90
2018-09-29T03:25:34.554Z,1021.90
2018-09-29T03:26:34.536Z,1021.88
2018-09-29T03:27:34.524Z,1021.86
2018-09-29T03:28:34.511Z,1021.83
2018-09-29T03:29:34.502Z,1021.87
2018-09-29T03:30:34.512Z,1021.87
2018-09-29T03:31:34.521Z,1021.89
2018-09-29T03:32:34.465Z,1021.90
2018-09-29T03:33:34.454Z,1021.89
2018-09-29T03:34:34.444Z,1021.88
2018-09-29T03:35:34.432Z,1021.92
2018-09-29T03:36:34.432Z,1021.91
2018-09-29T03:37:34.417Z,1021.90
2018-09-29T03:38:34.398Z,1021.91
2018-09-29T03:39:34.388Z,1021.92
2018-09-29T03:40:34.376Z,1021.93
2018-09-29T03:41:34.382Z,1021.95
2018-09-29T03:42:34.354Z,1021.93
2018-09-29T03:43:34.343Z,1021.87
2018-09-29T03:44:34.332Z,1021.85
2018-09-29T03:45:34.321Z,1021.84
2018-09-29T03:46:34.321Z,1021.89
2018-09-29T03:47:34.325Z,1021.90
2018-09-29T03:48:34.288Z,1021.93
2018-09-29T03:49:34.277Z,1021.92
2018-09-29T03:50:34.266Z,1021.93
2018-09-29T03:51:34.291Z,1021.90
2018-09-29T03:52:34.244Z,1021.85
2018-09-29T03:53:34.308Z,1021.82
2018-09-29T03:54:34.222Z,1021.82
2018-09-29T03:55:34.210Z,1021.83
2018-09-29T03:56:34.210Z,1021.86
2018-09-29T03:57:34.190Z,1021.85
2018-09-29T03:58:34.178Z,1021.85
2018-09-29T03:59:34.166Z,1021.85
2018-09-29T04:00:34.177Z,1021.82
2018-09-29T04:01:34.155Z,1021.82
2018-09-29T04:02:34.133Z,1021.81
2018-09-29T04:03:34.122Z,1021.82
2018-09-29T04:04:34.115Z,1021.83
2018-09-29T04:05:34.101Z,1021.83
2018-09-29T04:06:34.100Z,1021.84
2018-09-29T04:07:34.078Z,1021.83
2018-09-29T04:08:34.066Z,1021.85
2018-09-29T04:09:34.058Z,1021.92
2018-09-29T04:10:34.055Z,1021.89
2018-09-29T04:11:34.045Z,1021.90
2018-09-29T04:12:34.021Z,1021.90
2018-09-29T04:13:34.012Z,1021.95
2018-09-29T04:14:33.999Z,1021.90
2018-09-29T04:15:33.988Z,1021.92
2018-09-29T04:16:33.991Z,1021.94
2018-09-29T04:17:33.967Z,1021.92
2018-09-29T04:18:33.957Z,1021.94
2018-09-29T04:19:33.946Z,1021.95
2018-09-29T04:20:33.934Z,1021.95
2018-09-29T04:21:33.936Z,1021.97
2018-09-29T04:22:33.911Z,1021.96
2018-09-29T04:23:33.933Z,1021.95
2018-09-29T04:24:33.889Z,1021.97
2018-09-29T04:25:33.878Z,1021.95
2018-09-29T04:26:33.880Z,1021.97
2018-09-29T04:27:33.855Z,1022.00
2018-09-29T04:28:33.844Z,1022.00
2018-09-29T04:29:33.834Z,1022.03
2018-09-29T04:30:33.823Z,1022.06
2018-09-29T04:31:33.824Z,1022.08
2018-09-29T04:32:33.801Z,1022.04
2018-09-29T04:33:33.810Z,1022.05
2018-09-29T04:34:33.777Z,1022.08
2018-09-29T04:35:33.769Z,1022.03
2018-09-29T04:36:33.768Z,1022.05
2018-09-29T04:37:33.744Z,1022.03
2018-09-29T04:38:33.735Z,1022.08
2018-09-29T04:39:33.723Z,1022.04
2018-09-29T04:40:33.718Z,1022.06
2018-09-29T04:41:33.713Z,1022.03
2018-09-29T04:42:33.689Z,1022.08
2018-09-29T04:43:33.679Z,1022.08
2018-09-29T04:44:33.668Z,1022.12
2018-09-29T04:45:33.658Z,1022.14
2018-09-29T04:46:33.664Z,1022.14
2018-09-29T04:47:33.638Z,1022.14
2018-09-29T04:48:33.624Z,1022.13
2018-09-29T04:49:33.612Z,1022.16
2018-09-29T04:50:33.601Z,1022.15
2018-09-29T04:51:33.601Z,1022.16
2018-09-29T04:52:33.581Z,1022.17
2018-09-29T04:53:33.589Z,1022.19
2018-09-29T04:54:33.557Z,1022.21
2018-09-29T04:55:33.546Z,1022.25
2018-09-29T04:56:33.562Z,1022.25
2018-09-29T04:57:33.524Z,1022.22
2018-09-29T04:58:33.513Z,1022.27
2018-09-29T04:59:33.502Z,1022.21
2018-09-29T05:00:33.575Z,1022.21
2018-09-29T05:01:33.530Z,1022.25
2018-09-29T05:02:33.468Z,1022.26
2018-09-29T05:03:33.477Z,1022.26
2018-09-29T05:04:33.446Z,1022.24
2018-09-29T05:05:33.436Z,1022.27
2018-09-29T05:06:33.482Z,1022.24
2018-09-29T05:07:33.425Z,1022.22
2018-09-29T05:08:33.402Z,1022.21
2018-09-29T05:09:33.407Z,1022.19
2018-09-29T05:10:33.393Z,1022.17
2018-09-29T05:11:33.368Z,1022.16
2018-09-29T05:12:33.369Z,1022.12
2018-09-29T05:13:33.346Z,1022.12
2018-09-29T05:14:33.335Z,1022.10
2018-09-29T05:15:33.324Z,1022.13
2018-09-29T05:16:33.318Z,1022.12
2018-09-29T05:17:33.317Z,1022.08
2018-09-29T05:18:33.291Z,1022.07
2018-09-29T05:19:33.299Z,1022.10
2018-09-29T05:20:33.267Z,1022.06
2018-09-29T05:21:33.257Z,1022.05
2018-09-29T05:22:33.258Z,1022.09
2018-09-29T05:23:33.235Z,1022.08
2018-09-29T05:24:33.225Z,1022.09
2018-09-29T05:25:33.215Z,1022.10
2018-09-29T05:26:33.204Z,1022.14
2018-09-29T05:27:33.205Z,1022.14
2018-09-29T05:28:33.180Z,1022.13
2018-09-29T05:29:33.170Z,1022.10
2018-09-29T05:30:33.158Z,1022.09
2018-09-29T05:31:33.156Z,1022.11
2018-09-29T05:32:33.160Z,1022.12
2018-09-29T05:33:33.126Z,1022.15
2018-09-29T05:34:33.113Z,1022.20
2018-09-29T05:35:33.106Z,1022.22
2018-09-29T05:36:33.092Z,1022.17
2018-09-29T05:37:33.091Z,1022.18
2018-09-29T05:38:33.128Z,1022.16
2018-09-29T05:39:33.059Z,1022.15
2018-09-29T05:40:33.047Z,1022.13
2018-09-29T05:41:33.036Z,1022.16
2018-09-29T05:42:33.057Z,1022.18
2018-09-29T05:43:33.013Z,1022.16
2018-09-29T05:44:33.006Z,1022.21
2018-09-29T05:45:32.991Z,1022.19
2018-09-29T05:46:32.980Z,1022.21
2018-09-29T05:47:32.981Z,1022.31
2018-09-29T05:48:32.958Z,1022.26
2018-09-29T05:49:32.948Z,1022.38
2018-09-29T05:50:32.941Z,1022.34
2018-09-29T05:51:32.925Z,1022.33
2018-09-29T05:52:32.969Z,1022.35
2018-09-29T05:53:32.904Z,1022.32
2018-09-29T05:54:32.893Z,1022.38
2018-09-29T05:55:32.903Z,1022.41
2018-09-29T05:56:32.869Z,1022.41
2018-09-29T05:57:32.870Z,1022.45
2018-09-29T05:58:32.848Z,1022.43
2018-09-29T05:59:32.836Z,1022.45
2018-09-29T06:00:32.916Z,1022.46
2018-09-29T06:01:32.820Z,1022.51
2018-09-29T06:02:32.822Z,1022.49
2018-09-29T06:03:32.792Z,1022.48
2018-09-29T06:04:32.783Z,1022.49
2018-09-29T06:05:32.915Z,1022.49
2018-09-29T06:06:32.760Z,1022.46
2018-09-29T06:07:32.855Z,1022.50
2018-09-29T06:08:32.743Z,1022.45
2018-09-29T06:09:32.728Z,1022.45
2018-09-29T06:10:32.715Z,1022.47
2018-09-29T06:11:32.705Z,1022.46
2018-09-29T06:12:32.705Z,1022.47
2018-09-29T06:13:32.692Z,1022.49
2018-09-29T06:14:32.671Z,1022.52
2018-09-29T06:15:32.661Z,1022.52
2018-09-29T06:16:32.650Z,1022.52
2018-09-29T06:17:32.668Z,1022.49
2018-09-29T06:18:32.634Z,1022.50
2018-09-29T06:19:32.619Z,1022.48
2018-09-29T06:20:32.607Z,1022.47
2018-09-29T06:21:32.605Z,1022.45
2018-09-29T06:22:32.596Z,1022.37
2018-09-29T06:23:32.573Z,1022.38
2018-09-29T06:24:32.596Z,1022.42
2018-09-29T06:25:32.550Z,1022.44
2018-09-29T06:26:32.538Z,1022.41
2018-09-29T06:27:32.539Z,1022.45
2018-09-29T06:28:32.517Z,1022.45
2018-09-29T06:29:32.520Z,1022.50
2018-09-29T06:30:32.574Z,1022.58
2018-09-29T06:31:32.482Z,1022.51
2018-09-29T06:32:32.483Z,1022.52
2018-09-29T06:33:32.460Z,1022.52
2018-09-29T06:34:32.458Z,1022.54
2018-09-29T06:35:32.439Z,1022.54
2018-09-29T06:36:32.429Z,1022.55
2018-09-29T06:37:32.427Z,1022.51
2018-09-29T06:38:32.405Z,1022.53
2018-09-29T06:39:32.401Z,1022.51
2018-09-29T06:40:32.383Z,1022.50
2018-09-29T06:41:32.396Z,1022.42
2018-09-29T06:42:32.418Z,1022.48
2018-09-29T06:43:32.351Z,1022.41
2018-09-29T06:44:32.339Z,1022.44
2018-09-29T06:45:32.327Z,1022.44
2018-09-29T06:46:32.320Z,1022.44
2018-09-29T06:47:32.356Z,1022.48
2018-09-29T06:48:32.313Z,1022.47
2018-09-29T06:49:32.283Z,1022.50
2018-09-29T06:50:32.273Z,1022.48
2018-09-29T06:51:32.282Z,1022.46
2018-09-29T06:52:32.252Z,1022.46
2018-09-29T06:53:32.253Z,1022.47
2018-09-29T06:54:32.244Z,1022.48
2018-09-29T06:55:32.216Z,1022.48
2018-09-29T06:56:32.207Z,1022.51
2018-09-29T06:57:32.212Z,1022.52
2018-09-29T06:58:32.199Z,1022.51
2018-09-29T06:59:32.173Z,1022.56
2018-09-29T07:00:32.165Z,1022.53
2018-09-29T07:01:32.152Z,1022.55
2018-09-29T07:02:32.141Z,1022.52
2018-09-29T07:03:32.141Z,1022.52
2018-09-29T07:04:32.134Z,1022.51
2018-09-29T07:05:32.106Z,1022.50
2018-09-29T07:06:32.095Z,1022.51
2018-09-29T07:07:32.088Z,1022.56
2018-09-29T07:08:32.084Z,1022.57
2018-09-29T07:09:32.230Z,1022.54
2018-09-29T07:10:32.056Z,1022.55
2018-09-29T07:11:32.041Z,1022.55
2018-09-29T07:12:32.029Z,1022.54
2018-09-29T07:13:32.035Z,1022.57
2018-09-29T07:14:32.026Z,1022.54
2018-09-29T07:15:31.999Z,1022.54
2018-09-29T07:16:31.987Z,1022.54
2018-09-29T07:17:31.973Z,1022.53
2018-09-29T07:18:31.974Z,1022.52
2018-09-29T07:19:31.955Z,1022.52
2018-09-29T07:20:32.043Z,1022.54
2018-09-29T07:21:31.981Z,1022.59
2018-09-29T07:22:31.918Z,1022.56
2018-09-29T07:23:32.000Z,1022.56
2018-09-29T07:24:31.898Z,1022.57
2018-09-29T07:25:31.949Z,1022.54
2018-09-29T07:26:31.883Z,1022.55
2018-09-29T07:27:31.876Z,1022.52
2018-09-29T07:28:31.865Z,1022.54
2018-09-29T07:29:31.840Z,1022.50
2018-09-29T07:30:31.830Z,1022.50
2018-09-29T07:31:31.880Z,1022.49
2018-09-29T07:32:31.808Z,1022.52
2018-09-29T07:33:31.809Z,1022.54
2018-09-29T07:34:31.786Z,1022.55
2018-09-29T07:35:31.774Z,1022.56
2018-09-29T07:36:31.762Z,1022.59
2018-09-29T07:37:31.769Z,1022.59
2018-09-29T07:38:31.755Z,1022.64
2018-09-29T07:39:31.730Z,1022.63
2018-09-29T07:40:31.719Z,1022.61
2018-09-29T07:41:31.710Z,1022.59
2018-09-29T07:42:31.697Z,1022.62
2018-09-29T07:43:31.697Z,1022.67
2018-09-29T07:44:31.695Z,1022.70
2018-09-29T07:45:31.664Z,1022.65
2018-09-29T07:46:31.674Z,1022.73
2018-09-29T07:47:31.642Z,1022.71
2018-09-29T07:48:31.646Z,1022.67
2018-09-29T07:49:31.619Z,1022.63
2018-09-29T07:50:31.616Z,1022.64
2018-09-29T07:51:31.628Z,1022.64
2018-09-29T07:52:31.587Z,1022.61
2018-09-29T07:53:31.616Z,1022.57
2018-09-29T07:54:31.565Z,1022.57
2018-09-29T07:55:31.591Z,1022.61
2018-09-29T07:56:31.579Z,1022.54
2018-09-29T07:57:31.533Z,1022.53
2018-09-29T07:58:31.559Z,1022.54
2018-09-29T07:59:31.513Z,1022.54
2018-09-29T08:00:31.537Z,1022.56
2018-09-29T08:01:31.487Z,1022.58
2018-09-29T08:02:31.497Z,1022.53
2018-09-29T08:03:31.524Z,1022.56
2018-09-29T08:04:31.455Z,1022.50
2018-09-29T08:05:31.443Z,1022.58
2018-09-29T08:06:31.510Z,1022.56
2018-09-29T08:07:31.429Z,1022.58
2018-09-29T08:08:31.410Z,1022.55
2018-09-29T08:09:31.430Z,1022.57
2018-09-29T08:10:31.387Z,1022.60
2018-09-29T08:11:31.381Z,1022.61
2018-09-29T08:12:31.508Z,1022.60
2018-09-29T08:13:31.391Z,1022.57
2018-09-29T08:14:31.381Z,1022.57
2018-09-29T08:15:31.403Z,1022.61
2018-09-29T08:16:31.324Z,1022.54
2018-09-29T08:17:31.320Z,1022.55
2018-09-29T08:18:31.304Z,1022.54
2018-09-29T08:19:31.300Z,1022.51
2018-09-29T08:20:31.367Z,1022.50
2018-09-29T08:21:31.274Z,1022.53
2018-09-29T08:22:31.277Z,1022.54
2018-09-29T08:23:31.260Z,1022.55
2018-09-29T08:24:31.244Z,1022.52
2018-09-29T08:25:31.222Z,1022.54
2018-09-29T08:26:31.211Z,1022.50
2018-09-29T08:27:31.205Z,1022.49
2018-09-29T08:28:31.190Z,1022.50
2018-09-29T08:29:31.189Z,1022.51
2018-09-29T08:30:31.167Z,1022.48
2018-09-29T08:31:31.266Z,1022.47
2018-09-29T08:32:31.154Z,1022.47
2018-09-29T08:33:31.134Z,1022.50
2018-09-29T08:34:31.137Z,1022.55
2018-09-29T08:35:31.118Z,1022.52
2018-09-29T08:36:31.106Z,1022.51
2018-09-29T08:37:31.091Z,1022.49
2018-09-29T08:38:31.080Z,1022.53
2018-09-29T08:39:31.079Z,1022.52
2018-09-29T08:40:31.058Z,1022.51
2018-09-29T08:41:31.052Z,1022.49
2018-09-29T08:42:31.035Z,1022.48
2018-09-29T08:43:31.024Z,1022.52
2018-09-29T08:44:31.027Z,1022.52
2018-09-29T08:45:31.002Z,1022.51
2018-09-29T08:46:30.992Z,1022.48
2018-09-29T08:47:30.979Z,1022.51
2018-09-29T08:48:30.969Z,1022.53
2018-09-29T08:49:30.973Z,1022.54
2018-09-29T08:50:30.953Z,1022.52
2018-09-29T08:51:30.935Z,1022.50
2018-09-29T08:52:30.972Z,1022.48
2018-09-29T08:53:30.919Z,1022.47
2018-09-29T08:54:30.970Z,1022.47
2018-09-29T08:55:30.894Z,1022.46
2018-09-29T08:56:30.885Z,1022.46
2018-09-29T08:57:30.879Z,1022.51
2018-09-29T08:58:30.863Z,1022.49
2018-09-29T08:59:30.863Z,1022.41
2018-09-29T09:00:30.846Z,1022.45
2018-09-29T09:01:30.912Z,1022.44
2018-09-29T09:02:30.816Z,1022.45
2018-09-29T09:03:30.816Z,1022.43
2018-09-29T09:04:30.804Z,1022.45
2018-09-29T09:05:30.833Z,1022.46
2018-09-29T09:06:30.774Z,1022.46
2018-09-29T09:07:30.762Z,1022.44
2018-09-29T09:08:30.776Z,1022.52
2018-09-29T09:09:30.909Z,1022.47
2018-09-29T09:10:30.728Z,1022.47
2018-09-29T09:11:30.731Z,1022.41
2018-09-29T09:12:30.708Z,1022.40
2018-09-29T09:13:30.726Z,1022.46
2018-09-29T09:14:30.696Z,1022.46
2018-09-29T09:15:30.673Z,1022.45
2018-09-29T09:16:30.663Z,1022.47
2018-09-29T09:17:30.649Z,1022.46
2018-09-29T09:18:30.640Z,1022.48
2018-09-29T09:19:30.641Z,1022.47
2018-09-29T09:20:30.618Z,1022.43
2018-09-29T09:21:30.611Z,1022.44
2018-09-29T09:22:30.594Z,1022.44
2018-09-29T09:23:30.626Z,1022.46
2018-09-29T09:24:30.584Z,1022.44
2018-09-29T09:25:30.562Z,1022.47
2018-09-29T09:26:30.560Z,1022.41
2018-09-29T09:27:30.539Z,1022.42
2018-09-29T09:28:30.530Z,1022.39
2018-09-29T09:29:30.528Z,1022.38
2018-09-29T09:30:30.507Z,1022.40
2018-09-29T09:31:30.498Z,1022.41
2018-09-29T09:32:30.486Z,1022.39
2018-09-29T09:33:30.474Z,1022.40
2018-09-29T09:34:30.497Z,1022.37
2018-09-29T09:35:30.453Z,1022.38
2018-09-29T09:36:30.440Z,1022.41
2018-09-29T09:37:30.432Z,1022.40
2018-09-29T09:38:30.420Z,1022.36
2018-09-29T09:39:30.439Z,1022.36
2018-09-29T09:40:30.396Z,1022.37
2018-09-29T09:41:30.388Z,1022.38
2018-09-29T09:42:30.376Z,1022.34
2018-09-29T09:43:30.473Z,1022.38
2018-09-29T09:44:30.376Z,1022.28
2018-09-29T09:45:30.352Z,1022.29
2018-09-29T09:46:30.368Z,1022.26
2018-09-29T09:47:30.320Z,1022.28
2018-09-29T09:48:30.308Z,1022.27
2018-09-29T09:49:30.406Z,1022.25
2018-09-29T09:50:30.300Z,1022.26
2018-09-29T09:51:30.284Z,1022.23
2018-09-29T09:52:30.264Z,1022.18
2018-09-29T09:53:30.304Z,1022.19
2018-09-29T09:54:30.244Z,1022.20
2018-09-29T09:55:30.245Z,1022.18
2018-09-29T09:56:30.233Z,1022.19
2018-09-29T09:57:30.212Z,1022.20
2018-09-29T09:58:30.198Z,1022.16
2018-09-29T09:59:30.186Z,1022.12
2018-09-29T10:00:30.187Z,1022.11
2018-09-29T10:01:30.174Z,1022.14
2018-09-29T10:02:30.163Z,1022.11
2018-09-29T10:03:30.146Z,1022.11
2018-09-29T10:04:30.137Z,1022.07
2018-09-29T10:05:30.138Z,1022.04
2018-09-29T10:06:30.153Z,1022.03
2018-09-29T10:07:30.102Z,1022.00
2018-09-29T10:08:30.092Z,1022.06
2018-09-29T10:09:30.078Z,1022.06
2018-09-29T10:10:30.094Z,1022.05
2018-09-29T10:11:30.057Z,1021.98
2018-09-29T10:12:30.045Z,1022.01
2018-09-29T10:13:30.052Z,1022.00
2018-09-29T10:14:30.041Z,1022.00
2018-09-29T10:15:30.032Z,1021.99
2018-09-29T10:16:30.000Z,1022.01
2018-09-29T10:17:30.105Z,1021.98
2018-09-29T10:18:30.002Z,1021.94
2018-09-29T10:19:29.969Z,1021.94
2018-09-29T10:20:29.968Z,1021.89
2018-09-29T10:21:29.956Z,1021.90
2018-09-29T10:22:29.944Z,1021.89
2018-09-29T10:23:29.924Z,1021.90
2018-09-29T10:24:29.912Z,1021.86
2018-09-29T10:25:29.923Z,1021.89
2018-09-29T10:26:29.891Z,1021.86
2018-09-29T10:27:29.926Z,1021.86
2018-09-29T10:28:29.889Z,1021.83
2018-09-29T10:29:29.862Z,1021.79
2018-09-29T10:30:29.861Z,1021.77
2018-09-29T10:31:29.857Z,1021.73
2018-09-29T10:32:29.824Z,1021.71
2018-09-29T10:33:29.832Z,1021.70
2018-09-29T10:34:29.850Z,1021.68
2018-09-29T10:35:29.837Z,1021.63
2018-09-29T10:36:29.886Z,1021.61
2018-09-29T10:37:29.776Z,1021.55
2018-09-29T10:38:29.788Z,1021.56
2018-09-29T10:39:29.747Z,1021.56
2018-09-29T10:40:29.749Z,1021.59
2018-09-29T10:41:29.742Z,1021.53
2018-09-29T10:42:29.714Z,1021.53
2018-09-29T10:43:29.703Z,1021.48
2018-09-29T10:44:29.692Z,1021.53
2018-09-29T10:45:29.701Z,1021.54
2018-09-29T10:46:29.674Z,1021.54
2018-09-29T10:47:29.659Z,1021.50
2018-09-29T10:48:29.649Z,1021.48
2018-09-29T10:49:29.637Z,1021.47
2018-09-29T10:50:29.638Z,1021.45
2018-09-29T10:51:29.615Z,1021.43
2018-09-29T10:52:29.604Z,1021.46
2018-09-29T10:53:29.594Z,1021.39
2018-09-29T10:54:29.595Z,1021.37
2018-09-29T10:55:29.583Z,1021.38
2018-09-29T10:56:29.567Z,1021.44
2018-09-29T10:57:29.549Z,1021.26
2018-09-29T10:58:29.537Z,1021.26
2018-09-29T10:59:29.526Z,1021.23
2018-09-29T11:00:29.527Z,1021.26
2018-09-29T11:01:29.505Z,1021.24
2018-09-29T11:02:29.561Z,1021.24
2018-09-29T11:03:29.483Z,1021.24
2018-09-29T11:04:29.485Z,1021.18
2018-09-29T11:05:29.474Z,1021.22
2018-09-29T11:06:29.449Z,1021.24
2018-09-29T11:07:29.467Z,1021.17
2018-09-29T11:08:29.427Z,1021.17
2018-09-29T11:09:29.435Z,1021.15
2018-09-29T11:10:29.439Z,1021.19
2018-09-29T11:11:29.398Z,1021.16
2018-09-29T11:12:29.384Z,1021.17
2018-09-29T11:13:29.372Z,1021.10
2018-09-29T11:14:29.396Z,1021.17
2018-09-29T11:15:29.351Z,1021.12
2018-09-29T11:16:29.350Z,1021.10
2018-09-29T11:17:29.339Z,1021.11
2018-09-29T11:18:29.317Z,1021.07
2018-09-29T11:19:29.306Z,1021.03
2018-09-29T11:20:29.295Z,1021.04
2018-09-29T11:21:29.301Z,1021.04
2018-09-29T11:22:29.275Z,1021.00
2018-09-29T11:23:29.263Z,1020.98
2018-09-29T11:24:29.258Z,1020.95
2018-09-29T11:25:29.257Z,1020.97
2018-09-29T11:26:29.242Z,1020.87
2018-09-29T11:27:29.238Z,1020.88
2018-09-29T11:28:29.208Z,1020.87
2018-09-29T11:29:29.198Z,1020.90
2018-09-29T11:30:29.185Z,1020.83
2018-09-29T11:31:29.187Z,1020.84
2018-09-29T11:32:29.167Z,1020.89
2018-09-29T11:33:29.152Z,1020.83
2018-09-29T11:34:29.149Z,1020.84
2018-09-29T11:35:29.132Z,1020.80
2018-09-29T11:36:29.147Z,1020.82
2018-09-29T11:37:29.137Z,1020.73
2018-09-29T11:38:29.103Z,1020.72
2018-09-29T11:39:29.159Z,1020.69
2018-09-29T11:40:29.140Z,1020.70
2018-09-29T11:41:29.089Z,1020.67
2018-09-29T11:42:29.065Z,1020.67
2018-09-29T11:43:29.042Z,1020.65
2018-09-29T11:44:29.032Z,1020.59
2018-09-29T11:45:29.057Z,1020.58
2018-09-29T11:46:29.031Z,1020.59
2018-09-29T11:47:28.998Z,1020.59
2018-09-29T11:48:29.019Z,1020.56
2018-09-29T11:49:28.976Z,1020.50
2018-09-29T11:50:28.983Z,1020.50
2018-09-29T11:51:28.968Z,1020.47
2018-09-29T11:52:28.945Z,1020.44
2018-09-29T11:53:28.932Z,1020.42
2018-09-29T11:54:28.920Z,1020.42
2018-09-29T11:55:28.930Z,1020.41
2018-09-29T11:56:28.911Z,1020.46
2018-09-29T11:57:28.890Z,1020.42
2018-09-29T11:58:28.877Z,1020.43
2018-09-29T11:59:28.865Z,1020.41
2018-09-29T12:00:28.854Z,1020.39
2018-09-29T12:01:28.856Z,1020.35
2018-09-29T12:02:28.833Z,1020.38
2018-09-29T12:03:28.824Z,1020.32
2018-09-29T12:04:28.812Z,1020.30
2018-09-29T12:05:28.798Z,1020.33